Time;durP1;ratioP1;P1;durP2;ratioP2;P2;SDS_P1;SDS_P2;PMS_P1;PMS_P2;Temp;Humidity;BMP_temperature;BMP_pressure;BME280_temperature;BME280_humidity;BME280_pressure;Samples;Min_cycle;Max_cycle;Signal;HPM_P1;HPM_P2
2021/09/21 00:02:20;;;;;;;0.52;0.10;;;16.30;48.70;;;;;;20918115;28;79523;-72
2021/09/21 00:12:22;;;;;;;1.75;0.03;;;16.20;49.10;;;;;;20896439;28;79865;-72
2021/09/21 00:22:24;;;;;;;1.50;0.10;;;16.10;49.40;;;;;;20895858;28;80708;-73
2021/09/21 00:32:28;;;;;;;0.65;0.10;;;15.90;50.10;;;;;;20894551;28;80696;-72
2021/09/21 00:42:31;;;;;;;0.50;0.00;;;15.80;50.40;;;;;;20876205;28;80054;-72
2021/09/21 00:52:33;;;;;;;0.55;0.10;;;15.80;50.60;;;;;;20873660;27;80148;-70
2021/09/21 01:02:37;;;;;;;2.60;0.25;;;15.60;51.00;;;;;;20891306;28;80722;-76
2021/09/21 01:12:44;;;;;;;0.20;0.00;;;15.50;51.20;;;;;;20892317;28;80643;-75
2021/09/21 01:22:48;;;;;;;0.10;0.00;;;15.50;51.30;;;;;;20891153;28;81850;-70
2021/09/21 01:32:56;;;;;;;4.20;0.50;;;15.40;51.50;;;;;;20890542;28;81187;-72
2021/09/21 01:43:05;;;;;;;0.35;0.10;;;15.30;54.00;;;;;;20889746;28;80343;-72
2021/09/21 02:03:22;;;;;;;0.25;0.10;;;15.10;53.90;;;;;;20872376;28;80822;-74
2021/09/21 02:13:34;;;;;;;0.30;0.00;;;15.00;53.30;;;;;;20869657;28;80749;-72
2021/09/21 02:23:39;;;;;;;0.75;0.20;;;15.10;52.80;;;;;;20886685;28;81427;-71
2021/09/21 02:33:43;;;;;;;0.80;0.17;;;15.00;53.20;;;;;;20888612;28;79749;-71
2021/09/21 02:43:48;;;;;;;0.88;0.47;;;14.80;53.50;;;;;;20885691;28;80668;-72
2021/09/21 02:53:53;;;;;;;0.50;0.10;;;14.70;53.50;;;;;;20883879;28;80923;-71
2021/09/21 03:04:00;;;;;;;0.22;0.10;;;14.60;53.80;;;;;;20866394;28;80805;-73
2021/09/21 03:24:14;;;;;;;0.17;0.10;;;14.50;54.00;;;;;;20897192;27;81077;-73
2021/09/21 03:34:17;;;;;;;0.90;0.17;;;14.40;54.20;;;;;;20880417;28;80807;-72
2021/09/21 03:44:20;;;;;;;0.57;0.20;;;14.30;55.60;;;;;;20880977;28;82041;-71
2021/09/21 03:54:23;;;;;;;0.77;0.30;;;14.20;55.50;;;;;;20897415;28;81021;-73
2021/09/21 04:04:26;;;;;;;0.60;0.10;;;14.20;55.90;;;;;;20878463;28;80790;-74
2021/09/21 04:14:31;;;;;;;2.38;0.20;;;14.00;55.90;;;;;;20896250;28;81898;-73
2021/09/21 04:24:35;;;;;;;0.47;0.20;;;13.90;56.00;;;;;;20894645;28;79967;-76
2021/09/21 04:34:38;;;;;;;2.58;0.30;;;13.80;55.90;;;;;;20893326;27;80122;-73
2021/09/21 04:44:41;;;;;;;1.13;0.30;;;13.80;56.20;;;;;;20893230;28;81745;-73
2021/09/21 04:54:44;;;;;;;1.90;0.30;;;13.80;56.40;;;;;;20874607;28;80781;-72
2021/09/21 05:04:46;;;;;;;1.23;0.27;;;13.80;56.30;;;;;;20893410;28;81637;-72
2021/09/21 05:14:50;;;;;;;0.52;0.30;;;13.70;56.20;;;;;;20875085;28;81908;-73
2021/09/21 05:24:54;;;;;;;1.00;0.22;;;13.80;56.00;;;;;;20873918;28;80060;-71
2021/09/21 05:34:56;;;;;;;3.83;0.30;;;13.80;56.10;;;;;;20867948;28;81882;-76
2021/09/21 05:44:59;;;;;;;0.83;0.40;;;13.70;56.20;;;;;;20858123;27;82151;-76
2021/09/21 05:55:06;;;;;;;2.00;0.25;;;13.80;56.30;;;;;;20878680;28;81596;-75
2021/09/21 06:05:08;;;;;;;1.05;0.30;;;13.90;56.40;;;;;;20859521;28;81425;-74
2021/09/21 06:15:13;;;;;;;1.83;0.80;;;13.90;56.10;;;;;;20855728;28;82111;-77
2021/09/21 06:25:18;;;;;;;3.25;1.02;;;13.90;56.20;;;;;;20857538;28;81864;-74
2021/09/21 06:35:22;;;;;;;3.15;0.77;;;14.00;55.90;;;;;;20877524;28;81627;-78
2021/09/21 06:45:27;;;;;;;1.30;0.32;;;14.10;55.90;;;;;;20877617;28;81620;-77
2021/09/21 06:55:30;;;;;;;0.80;0.53;;;14.40;55.60;;;;;;20884375;27;81144;-76
2021/09/21 07:05:33;;;;;;;3.00;0.73;;;14.40;55.00;;;;;;20910356;28;81022;-77
2021/09/21 07:15:35;;;;;;;;;;;14.60;54.60;;;;;;20864748;28;81616;-76
2021/09/21 07:25:38;;;;;;;4.55;0.88;;;14.60;54.30;;;;;;20895411;28;81773;-75
2021/09/21 07:35:45;;;;;;;5.55;2.55;;;14.80;53.80;;;;;;20861053;28;81527;-77
2021/09/21 07:45:50;;;;;;;3.90;0.93;;;15.10;53.30;;;;;;20838699;28;81178;-76
2021/09/21 07:55:54;;;;;;;1.83;0.45;;;15.50;52.40;;;;;;20872472;28;82017;-77
2021/09/21 08:05:57;;;;;;;26.77;5.33;;;15.80;51.00;;;;;;20878869;27;82511;-72
2021/09/21 08:15:58;;;;;;;1.38;0.28;;;16.20;51.30;;;;;;20863852;28;81740;-76
2021/09/21 08:26:00;;;;;;;2.72;0.38;;;16.60;48.80;;;;;;20878225;28;81879;-73
2021/09/21 08:36:03;;;;;;;3.20;0.40;;;16.80;48.00;;;;;;20884396;28;80727;-76
2021/09/21 08:46:05;;;;;;;0.90;0.15;;;17.10;46.90;;;;;;20883749;28;82390;-79
2021/09/21 08:56:07;;;;;;;0.77;0.30;;;17.50;46.10;;;;;;20882356;28;82122;-76
2021/09/21 09:06:10;;;;;;;2.30;0.37;;;17.80;45.50;;;;;;20881100;28;83410;-75
2021/09/21 09:16:17;;;;;;;2.58;0.20;;;18.40;44.50;;;;;;20878035;28;81886;-73
2021/09/21 09:26:24;;;;;;;0.98;0.20;;;19.30;41.40;;;;;;20862985;28;81543;-72
2021/09/21 09:36:25;;;;;;;4.30;0.40;;;20.30;39.60;;;;;;20859171;28;81820;-69
2021/09/21 09:46:39;;;;;;;2.80;0.60;;;21.40;37.50;;;;;;20878746;28;80992;-68
2021/09/21 09:56:43;;;;;;;5.50;0.70;;;22.80;35.20;;;;;;20879108;28;81912;-68
2021/09/21 10:06:45;;;;;;;1.38;0.70;;;24.00;32.90;;;;;;20859862;28;81866;-69
2021/09/21 10:17:09;;;;;;;0.73;0.20;;;25.80;29.60;;;;;;20854917;28;81526;-69
2021/09/21 10:27:19;;;;;;;1.50;0.20;;;27.10;28.10;;;;;;20856027;27;81056;-69
2021/09/21 10:37:23;;;;;;;1.92;0.30;;;29.40;24.90;;;;;;20859411;28;81837;-67
2021/09/21 10:47:31;;;;;;;2.67;0.47;;;32.20;22.30;;;;;;20871628;28;81883;-69
2021/09/21 10:57:43;;;;;;;5.38;0.43;;;34.90;19.60;;;;;;20875171;28;82057;-67
2021/09/21 11:07:51;;;;;;;3.00;0.30;;;35.80;19.00;;;;;;20871531;28;81019;-68
2021/09/21 11:18:02;;;;;;;2.63;0.40;;;37.90;17.30;;;;;;20856131;28;81673;-67
2021/09/21 11:28:07;;;;;;;0.93;0.30;;;40.10;15.70;;;;;;20873204;28;81798;-70
2021/09/21 11:38:11;;;;;;;1.17;0.30;;;41.90;14.70;;;;;;20857483;27;82242;-67
2021/09/21 11:48:15;;;;;;;1.42;0.20;;;42.70;14.40;;;;;;20849852;28;81450;-66
2021/09/21 11:58:17;;;;;;;2.20;0.40;;;44.40;13.80;;;;;;20880074;28;81315;-68
2021/09/21 12:08:30;;;;;;;3.42;0.43;;;40.00;16.00;;;;;;20885888;28;82298;-67
2021/09/21 12:18:35;;;;;;;2.28;0.22;;;34.80;20.00;;;;;;20884624;28;81891;-67
2021/09/21 12:28:43;;;;;;;2.67;0.30;;;37.70;17.60;;;;;;20883838;28;80707;-69
2021/09/21 12:39:05;;;;;;;2.08;0.30;;;37.60;17.60;;;;;;20878830;28;81792;-69
2021/09/21 12:49:15;;;;;;;2.70;0.50;;;31.00;23.00;;;;;;20878623;28;80787;-69
2021/09/21 12:59:23;;;;;;;1.23;0.30;;;29.90;24.90;;;;;;20871445;28;81707;-70
2021/09/21 13:09:25;;;;;;;3.03;0.32;;;35.00;19.40;;;;;;20893424;28;80023;-69
2021/09/21 13:19:27;;;;;;;1.25;0.30;;;32.70;21.80;;;;;;20894069;28;81816;-67
2021/09/21 13:29:31;;;;;;;2.88;0.80;;;33.50;20.60;;;;;;20874663;28;80787;-72
2021/09/21 13:39:33;;;;;;;2.13;0.40;;;32.80;21.70;;;;;;20890779;27;81646;-69
2021/09/21 13:49:38;;;;;;;2.45;0.52;;;35.50;19.50;;;;;;20839133;27;80729;-69
2021/09/21 13:59:40;;;;;;;2.30;0.30;;;35.00;20.20;;;;;;20890079;27;80018;-66
2021/09/21 14:09:42;;;;;;;1.23;0.35;;;36.40;18.80;;;;;;20890949;28;80951;-71
2021/09/21 14:19:46;;;;;;;3.75;0.88;;;37.50;18.40;;;;;;20889583;27;79891;-70
2021/09/21 14:29:50;;;;;;;4.97;0.77;;;38.60;17.30;;;;;;20890617;28;81388;-72
2021/09/21 14:39:52;;;;;;;2.65;0.60;;;43.60;14.00;;;;;;20887480;27;79976;-67
2021/09/21 14:49:54;;;;;;;2.75;0.60;;;36.70;18.10;;;;;;20860369;27;79972;-70
2021/09/21 14:59:56;;;;;;;4.97;0.60;;;39.50;15.90;;;;;;20883879;27;80932;-68
2021/09/21 15:09:58;;;;;;;0.73;0.40;;;40.50;15.50;;;;;;20853907;28;80753;-70
2021/09/21 15:20:01;;;;;;;3.05;0.70;;;39.30;16.20;;;;;;20863632;28;81975;-72
2021/09/21 15:30:07;;;;;;;1.92;0.70;;;36.60;17.90;;;;;;20880795;28;80618;-69
2021/09/21 15:40:12;;;;;;;3.05;1.00;;;38.00;16.40;;;;;;20883909;28;80582;-70
2021/09/21 15:50:17;;;;;;;1.45;1.00;;;42.00;14.20;;;;;;20884702;28;80015;-69
2021/09/21 16:00:22;;;;;;;2.20;0.57;;;45.30;12.90;;;;;;20866197;28;80768;-73
2021/09/21 16:10:31;;;;;;;2.50;0.52;;;44.00;13.20;;;;;;20882377;27;80550;-71
2021/09/21 16:20:38;;;;;;;1.63;0.60;;;37.20;16.20;;;;;;20885900;27;80782;-70
2021/09/21 16:30:41;;;;;;;1.65;0.50;;;33.40;18.60;;;;;;20892183;27;82179;-70
2021/09/21 16:40:51;;;;;;;1.83;0.50;;;30.50;20.90;;;;;;20892819;27;81348;-70
2021/09/21 16:50:53;;;;;;;2.17;0.50;;;29.10;22.00;;;;;;20877693;27;80574;-70
2021/09/21 17:01:01;;;;;;;0.38;0.10;;;28.60;22.40;;;;;;20894796;28;80732;-69
2021/09/21 17:11:10;;;;;;;1.92;0.22;;;27.70;22.60;;;;;;20877610;28;81037;-69
2021/09/21 17:21:12;;;;;;;1.30;0.30;;;26.50;24.00;;;;;;20871943;28;81534;-71
2021/09/21 17:31:15;;;;;;;0.98;0.22;;;25.90;24.90;;;;;;20874301;28;80722;-70
2021/09/21 17:41:17;;;;;;;0.80;0.28;;;25.40;25.20;;;;;;20878661;27;80505;-71
2021/09/21 17:51:20;;;;;;;1.33;0.20;;;24.90;26.40;;;;;;20858963;27;80951;-72
2021/09/21 18:01:22;;;;;;;1.48;0.30;;;24.40;26.70;;;;;;20877268;27;81286;-69
2021/09/21 18:11:25;;;;;;;1.48;0.40;;;24.00;27.30;;;;;;20875430;28;80992;-70
2021/09/21 18:22:05;;;;;;;3.08;0.40;;;23.60;27.70;;;;;;20856338;28;82178;-69
2021/09/21 18:32:07;;;;;;;2.30;0.45;;;23.40;27.90;;;;;;20875493;27;81841;-69
2021/09/21 18:42:09;;;;;;;2.38;0.25;;;23.00;28.70;;;;;;20875187;28;81438;-68
2021/09/21 18:52:12;;;;;;;2.67;0.60;;;22.70;29.20;;;;;;20874022;27;82132;-66
2021/09/21 19:02:14;;;;;;;5.57;0.90;;;22.50;29.90;;;;;;20856559;28;81114;-68
2021/09/21 19:12:19;;;;;;;1.48;0.30;;;22.40;30.50;;;;;;20864827;28;81326;-71
2021/09/21 19:22:21;;;;;;;;;;;22.20;31.30;;;;;;20872301;28;81571;-72
2021/09/21 19:32:24;;;;;;;1.80;0.43;;;21.90;31.50;;;;;;20879668;27;81830;-70
2021/09/21 19:42:28;;;;;;;1.35;0.52;;;21.60;32.80;;;;;;20885117;28;80477;-71
2021/09/21 19:52:31;;;;;;;2.40;0.80;;;21.50;33.40;;;;;;20883941;28;80928;-72
2021/09/21 20:02:33;;;;;;;3.53;0.85;;;21.30;33.90;;;;;;20893479;27;82372;-72
2021/09/21 20:12:35;;;;;;;3.63;0.30;;;21.10;34.10;;;;;;20898290;28;81603;-70
2021/09/21 20:22:37;;;;;;;2.60;0.40;;;20.90;34.40;;;;;;20879651;27;80408;-71
2021/09/21 20:32:49;;;;;;;1.40;0.65;;;20.80;35.00;;;;;;20879092;28;82009;-74
2021/09/21 20:42:52;;;;;;;4.43;0.83;;;20.70;35.80;;;;;;20896820;28;82324;-73
2021/09/21 20:52:53;;;;;;;1.17;0.30;;;20.50;36.10;;;;;;20896475;28;80512;-71
2021/09/21 21:02:56;;;;;;;2.08;0.43;;;20.50;36.30;;;;;;20894989;27;81866;-71
2021/09/21 21:13:02;;;;;;;1.03;0.50;;;20.40;37.10;;;;;;20876065;27;80370;-71
2021/09/21 21:23:04;;;;;;;3.25;0.40;;;20.10;37.80;;;;;;20894478;28;81066;-71
2021/09/21 21:33:07;;;;;;;2.25;0.50;;;19.90;38.50;;;;;;20874607;27;79992;-70
2021/09/21 21:43:10;;;;;;;2.80;0.30;;;19.70;39.10;;;;;;20893053;28;81834;-72
2021/09/21 21:53:21;;;;;;;1.52;0.50;;;19.40;39.90;;;;;;20875012;28;80762;-73
2021/09/21 22:03:22;;;;;;;1.97;0.57;;;19.20;40.60;;;;;;20890712;28;80359;-72
2021/09/21 22:13:24;;;;;;;1.10;0.30;;;19.20;40.70;;;;;;20890962;28;82130;-70
2021/09/21 22:23:26;;;;;;;1.07;0.23;;;19.30;40.60;;;;;;20890143;27;80543;-72
2021/09/21 22:33:29;;;;;;;0.70;0.30;;;19.40;41.00;;;;;;20870284;28;80730;-73
2021/09/21 22:43:34;;;;;;;0.63;0.28;;;19.20;41.70;;;;;;20887013;28;80718;-71
2021/09/21 22:53:36;;;;;;;2.90;0.20;;;19.20;42.10;;;;;;20885736;28;81065;-74
2021/09/21 23:03:38;;;;;;;1.30;0.20;;;19.20;42.10;;;;;;20887048;28;80549;-72
2021/09/21 23:13:43;;;;;;;2.35;0.40;;;19.10;42.40;;;;;;20868141;28;79949;-73
2021/09/21 23:23:44;;;;;;;2.13;0.27;;;18.90;43.20;;;;;;20884805;28;80657;-74
2021/09/21 23:33:46;;;;;;;1.00;0.40;;;18.90;43.50;;;;;;20869216;27;81730;-73
2021/09/21 23:43:48;;;;;;;1.13;0.30;;;18.80;43.80;;;;;;20881113;28;80755;-73
2021/09/21 23:53:50;;;;;;;1.45;0.60;;;18.60;44.30;;;;;;20897865;28;80068;-71
